sensor_id;sensor_type;location;lat;lon;timestamp;P1;durP1;ratioP1;P2;durP2;ratioP2
43124;SDS011;49182;50.788;7.318;2023-02-23T00:01:23;17.65;;;6.53;;
43124;SDS011;49182;50.788;7.318;2023-02-23T00:03:52;14.30;;;7.00;;
43124;SDS011;49182;50.788;7.318;2023-02-23T00:06:19;10.07;;;6.07;;
43124;SDS011;49182;50.788;7.318;2023-02-23T00:08:46;14.23;;;7.25;;
43124;SDS011;49182;50.788;7.318;2023-02-23T00:11:14;14.13;;;6.60;;
43124;SDS011;49182;50.788;7.318;2023-02-23T00:13:44;14.10;;;6.90;;
43124;SDS011;49182;50.788;7.318;2023-02-23T00:16:12;12.65;;;7.10;;
43124;SDS011;49182;50.788;7.318;2023-02-23T00:18:41;13.27;;;7.10;;
43124;SDS011;49182;50.788;7.318;2023-02-23T00:21:10;14.23;;;7.35;;
43124;SDS011;49182;50.788;7.318;2023-02-23T00:23:37;11.10;;;6.60;;
43124;SDS011;49182;50.788;7.318;2023-02-23T00:26:04;25.38;;;7.57;;
43124;SDS011;49182;50.788;7.318;2023-02-23T00:28:30;12.90;;;6.40;;
43124;SDS011;49182;50.788;7.318;2023-02-23T00:31:01;12.50;;;6.57;;
43124;SDS011;49182;50.788;7.318;2023-02-23T00:33:28;12.50;;;6.55;;
43124;SDS011;49182;50.788;7.318;2023-02-23T00:35:55;10.02;;;6.20;;
43124;SDS011;49182;50.788;7.318;2023-02-23T00:38:21;11.77;;;6.70;;
43124;SDS011;49182;50.788;7.318;2023-02-23T00:40:48;16.15;;;7.65;;
43124;SDS011;49182;50.788;7.318;2023-02-23T00:43:15;15.48;;;6.90;;
43124;SDS011;49182;50.788;7.318;2023-02-23T00:45:42;16.00;;;7.32;;
43124;SDS011;49182;50.788;7.318;2023-02-23T00:48:10;14.75;;;7.53;;
43124;SDS011;49182;50.788;7.318;2023-02-23T00:50:37;11.60;;;7.20;;
43124;SDS011;49182;50.788;7.318;2023-02-23T00:53:04;14.40;;;7.25;;
43124;SDS011;49182;50.788;7.318;2023-02-23T00:55:31;12.70;;;7.40;;
43124;SDS011;49182;50.788;7.318;2023-02-23T00:57:57;15.45;;;7.28;;
43124;SDS011;49182;50.788;7.318;2023-02-23T01:00:24;11.45;;;6.28;;
43124;SDS011;49182;50.788;7.318;2023-02-23T01:02:50;13.15;;;6.75;;
43124;SDS011;49182;50.788;7.318;2023-02-23T01:05:19;14.02;;;7.50;;
43124;SDS011;49182;50.788;7.318;2023-02-23T01:07:46;12.32;;;7.70;;
43124;SDS011;49182;50.788;7.318;2023-02-23T01:10:13;13.07;;;7.57;;
43124;SDS011;49182;50.788;7.318;2023-02-23T01:12:40;16.48;;;7.43;;
43124;SDS011;49182;50.788;7.318;2023-02-23T01:15:07;13.13;;;7.65;;
43124;SDS011;49182;50.788;7.318;2023-02-23T01:17:34;14.98;;;8.20;;
43124;SDS011;49182;50.788;7.318;2023-02-23T01:20:01;16.52;;;8.00;;
43124;SDS011;49182;50.788;7.318;2023-02-23T01:22:31;18.23;;;7.85;;
43124;SDS011;49182;50.788;7.318;2023-02-23T01:24:58;11.23;;;6.68;;
43124;SDS011;49182;50.788;7.318;2023-02-23T01:27:24;13.13;;;6.90;;
43124;SDS011;49182;50.788;7.318;2023-02-23T01:29:52;14.82;;;7.45;;
43124;SDS011;49182;50.788;7.318;2023-02-23T01:32:19;15.30;;;7.65;;
43124;SDS011;49182;50.788;7.318;2023-02-23T01:34:46;13.20;;;7.82;;
43124;SDS011;49182;50.788;7.318;2023-02-23T01:37:12;13.48;;;7.45;;
43124;SDS011;49182;50.788;7.318;2023-02-23T01:39:40;14.20;;;8.40;;
43124;SDS011;49182;50.788;7.318;2023-02-23T01:42:09;15.30;;;8.73;;
43124;SDS011;49182;50.788;7.318;2023-02-23T01:47:41;16.80;;;8.95;;
43124;SDS011;49182;50.788;7.318;2023-02-23T01:50:07;16.50;;;8.02;;
43124;SDS011;49182;50.788;7.318;2023-02-23T01:52:36;14.90;;;8.02;;
43124;SDS011;49182;50.788;7.318;2023-02-23T01:55:05;17.83;;;8.40;;
43124;SDS011;49182;50.788;7.318;2023-02-23T01:57:32;14.30;;;7.50;;
43124;SDS011;49182;50.788;7.318;2023-02-23T01:59:58;13.60;;;8.02;;
43124;SDS011;49182;50.788;7.318;2023-02-23T02:02:25;13.18;;;7.90;;
43124;SDS011;49182;50.788;7.318;2023-02-23T02:04:56;14.75;;;8.00;;
43124;SDS011;49182;50.788;7.318;2023-02-23T02:07:27;14.13;;;7.88;;
43124;SDS011;49182;50.788;7.318;2023-02-23T02:09:56;14.25;;;7.78;;
43124;SDS011;49182;50.788;7.318;2023-02-23T02:12:25;14.45;;;8.02;;
43124;SDS011;49182;50.788;7.318;2023-02-23T02:14:52;15.35;;;7.97;;
43124;SDS011;49182;50.788;7.318;2023-02-23T02:17:25;16.80;;;8.38;;
43124;SDS011;49182;50.788;7.318;2023-02-23T02:26:28;13.00;;;7.97;;
43124;SDS011;49182;50.788;7.318;2023-02-23T02:29:20;14.40;;;7.95;;
43124;SDS011;49182;50.788;7.318;2023-02-23T02:35:09;13.27;;;8.40;;
43124;SDS011;49182;50.788;7.318;2023-02-23T02:38:01;14.32;;;7.85;;
43124;SDS011;49182;50.788;7.318;2023-02-23T02:40:39;13.88;;;8.18;;
43124;SDS011;49182;50.788;7.318;2023-02-23T02:43:11;15.48;;;8.15;;
43124;SDS011;49182;50.788;7.318;2023-02-23T02:45:47;17.92;;;8.27;;
43124;SDS011;49182;50.788;7.318;2023-02-23T02:48:21;14.43;;;7.50;;
43124;SDS011;49182;50.788;7.318;2023-02-23T02:50:55;13.27;;;8.30;;
43124;SDS011;49182;50.788;7.318;2023-02-23T02:53:33;15.75;;;9.35;;
43124;SDS011;49182;50.788;7.318;2023-02-23T02:56:06;17.40;;;8.95;;
43124;SDS011;49182;50.788;7.318;2023-02-23T02:58:35;15.85;;;8.77;;
43124;SDS011;49182;50.788;7.318;2023-02-23T03:01:07;16.20;;;9.05;;
43124;SDS011;49182;50.788;7.318;2023-02-23T03:06:05;15.40;;;8.50;;
43124;SDS011;49182;50.788;7.318;2023-02-23T03:08:35;13.93;;;8.45;;
43124;SDS011;49182;50.788;7.318;2023-02-23T03:11:04;14.57;;;8.57;;
43124;SDS011;49182;50.788;7.318;2023-02-23T03:13:35;18.63;;;9.18;;
43124;SDS011;49182;50.788;7.318;2023-02-23T03:16:14;18.98;;;8.93;;
43124;SDS011;49182;50.788;7.318;2023-02-23T03:18:52;14.20;;;8.30;;
43124;SDS011;49182;50.788;7.318;2023-02-23T03:21:30;17.33;;;8.55;;
43124;SDS011;49182;50.788;7.318;2023-02-23T03:24:04;17.55;;;9.13;;
43124;SDS011;49182;50.788;7.318;2023-02-23T03:26:37;16.90;;;9.05;;
43124;SDS011;49182;50.788;7.318;2023-02-23T03:29:12;18.48;;;10.05;;
43124;SDS011;49182;50.788;7.318;2023-02-23T03:31:45;17.13;;;9.23;;
43124;SDS011;49182;50.788;7.318;2023-02-23T03:34:18;16.92;;;9.55;;
43124;SDS011;49182;50.788;7.318;2023-02-23T03:36:51;16.30;;;9.02;;
43124;SDS011;49182;50.788;7.318;2023-02-23T03:39:28;15.23;;;8.98;;
43124;SDS011;49182;50.788;7.318;2023-02-23T03:42:00;18.65;;;9.52;;
43124;SDS011;49182;50.788;7.318;2023-02-23T03:47:01;15.95;;;8.95;;
43124;SDS011;49182;50.788;7.318;2023-02-23T03:49:32;15.40;;;9.30;;
43124;SDS011;49182;50.788;7.318;2023-02-23T03:52:04;17.30;;;8.87;;
43124;SDS011;49182;50.788;7.318;2023-02-23T03:54:36;16.20;;;8.75;;
43124;SDS011;49182;50.788;7.318;2023-02-23T03:57:07;16.85;;;9.88;;
43124;SDS011;49182;50.788;7.318;2023-02-23T03:59:36;17.05;;;8.68;;
43124;SDS011;49182;50.788;7.318;2023-02-23T04:02:08;15.85;;;8.68;;
43124;SDS011;49182;50.788;7.318;2023-02-23T04:04:36;14.32;;;8.52;;
43124;SDS011;49182;50.788;7.318;2023-02-23T04:07:05;15.85;;;9.25;;
43124;SDS011;49182;50.788;7.318;2023-02-23T04:09:33;17.38;;;9.27;;
43124;SDS011;49182;50.788;7.318;2023-02-23T04:12:03;18.75;;;9.43;;
43124;SDS011;49182;50.788;7.318;2023-02-23T04:14:35;18.23;;;9.77;;
43124;SDS011;49182;50.788;7.318;2023-02-23T04:19:34;18.27;;;9.88;;
43124;SDS011;49182;50.788;7.318;2023-02-23T04:22:00;20.65;;;10.25;;
43124;SDS011;49182;50.788;7.318;2023-02-23T04:24:27;17.90;;;9.82;;
43124;SDS011;49182;50.788;7.318;2023-02-23T04:26:54;16.92;;;10.20;;
43124;SDS011;49182;50.788;7.318;2023-02-23T04:29:22;16.05;;;9.57;;
43124;SDS011;49182;50.788;7.318;2023-02-23T04:31:48;16.85;;;10.07;;
43124;SDS011;49182;50.788;7.318;2023-02-23T04:34:15;18.73;;;10.00;;
43124;SDS011;49182;50.788;7.318;2023-02-23T04:36:42;18.13;;;9.95;;
43124;SDS011;49182;50.788;7.318;2023-02-23T04:39:08;17.27;;;10.63;;
43124;SDS011;49182;50.788;7.318;2023-02-23T04:41:35;17.17;;;9.73;;
43124;SDS011;49182;50.788;7.318;2023-02-23T04:44:02;16.77;;;10.48;;
43124;SDS011;49182;50.788;7.318;2023-02-23T04:46:30;18.13;;;9.68;;
43124;SDS011;49182;50.788;7.318;2023-02-23T04:48:56;18.25;;;10.35;;
43124;SDS011;49182;50.788;7.318;2023-02-23T04:51:23;18.38;;;10.88;;
43124;SDS011;49182;50.788;7.318;2023-02-23T04:53:50;20.65;;;11.15;;
43124;SDS011;49182;50.788;7.318;2023-02-23T04:56:16;18.55;;;9.95;;
43124;SDS011;49182;50.788;7.318;2023-02-23T04:58:43;16.50;;;9.43;;
43124;SDS011;49182;50.788;7.318;2023-02-23T05:01:10;17.27;;;10.00;;
43124;SDS011;49182;50.788;7.318;2023-02-23T05:03:38;22.60;;;9.93;;
43124;SDS011;49182;50.788;7.318;2023-02-23T05:06:04;18.55;;;9.40;;
43124;SDS011;49182;50.788;7.318;2023-02-23T05:08:31;15.93;;;9.27;;
43124;SDS011;49182;50.788;7.318;2023-02-23T05:10:58;19.23;;;11.20;;
43124;SDS011;49182;50.788;7.318;2023-02-23T05:13:24;20.33;;;9.93;;
43124;SDS011;49182;50.788;7.318;2023-02-23T05:15:54;17.00;;;10.18;;
43124;SDS011;49182;50.788;7.318;2023-02-23T05:18:22;18.80;;;11.27;;
43124;SDS011;49182;50.788;7.318;2023-02-23T05:20:50;27.90;;;14.93;;
43124;SDS011;49182;50.788;7.318;2023-02-23T05:23:17;25.95;;;14.38;;
43124;SDS011;49182;50.788;7.318;2023-02-23T05:25:44;24.55;;;14.68;;
43124;SDS011;49182;50.788;7.318;2023-02-23T05:28:10;24.08;;;13.35;;
43124;SDS011;49182;50.788;7.318;2023-02-23T05:30:37;23.35;;;14.10;;
43124;SDS011;49182;50.788;7.318;2023-02-23T05:33:04;23.25;;;13.15;;
43124;SDS011;49182;50.788;7.318;2023-02-23T05:35:30;26.58;;;14.15;;
43124;SDS011;49182;50.788;7.318;2023-02-23T05:37:58;29.55;;;17.80;;
43124;SDS011;49182;50.788;7.318;2023-02-23T05:40:24;28.20;;;15.90;;
43124;SDS011;49182;50.788;7.318;2023-02-23T05:42:51;32.38;;;18.00;;
43124;SDS011;49182;50.788;7.318;2023-02-23T05:45:24;30.77;;;19.30;;
43124;SDS011;49182;50.788;7.318;2023-02-23T05:47:50;28.17;;;16.27;;
43124;SDS011;49182;50.788;7.318;2023-02-23T05:50:17;29.05;;;16.35;;
43124;SDS011;49182;50.788;7.318;2023-02-23T05:52:43;30.60;;;17.90;;
43124;SDS011;49182;50.788;7.318;2023-02-23T05:55:11;32.78;;;19.30;;
43124;SDS011;49182;50.788;7.318;2023-02-23T05:57:38;34.72;;;18.52;;
43124;SDS011;49182;50.788;7.318;2023-02-23T06:00:05;37.08;;;21.25;;
43124;SDS011;49182;50.788;7.318;2023-02-23T06:02:33;40.60;;;23.65;;
43124;SDS011;49182;50.788;7.318;2023-02-23T06:05:00;39.13;;;22.98;;
43124;SDS011;49182;50.788;7.318;2023-02-23T06:07:27;43.20;;;24.25;;
43124;SDS011;49182;50.788;7.318;2023-02-23T06:09:53;34.25;;;21.25;;
43124;SDS011;49182;50.788;7.318;2023-02-23T06:12:21;40.05;;;23.30;;
43124;SDS011;49182;50.788;7.318;2023-02-23T06:14:48;41.72;;;24.77;;
43124;SDS011;49182;50.788;7.318;2023-02-23T06:17:15;39.70;;;24.05;;
43124;SDS011;49182;50.788;7.318;2023-02-23T06:19:41;42.75;;;25.17;;
43124;SDS011;49182;50.788;7.318;2023-02-23T06:22:08;44.30;;;27.02;;
43124;SDS011;49182;50.788;7.318;2023-02-23T06:24:35;41.70;;;25.80;;
43124;SDS011;49182;50.788;7.318;2023-02-23T06:27:01;46.47;;;27.13;;
43124;SDS011;49182;50.788;7.318;2023-02-23T06:29:29;45.58;;;27.08;;
43124;SDS011;49182;50.788;7.318;2023-02-23T06:31:56;46.33;;;26.55;;
43124;SDS011;49182;50.788;7.318;2023-02-23T06:34:26;44.50;;;27.13;;
43124;SDS011;49182;50.788;7.318;2023-02-23T06:36:53;45.20;;;26.38;;
43124;SDS011;49182;50.788;7.318;2023-02-23T06:39:19;46.42;;;27.60;;
43124;SDS011;49182;50.788;7.318;2023-02-23T06:41:47;47.47;;;28.30;;
43124;SDS011;49182;50.788;7.318;2023-02-23T06:44:13;45.25;;;27.55;;
43124;SDS011;49182;50.788;7.318;2023-02-23T06:46:41;47.35;;;28.15;;
43124;SDS011;49182;50.788;7.318;2023-02-23T06:49:08;46.75;;;28.73;;
43124;SDS011;49182;50.788;7.318;2023-02-23T06:51:36;50.10;;;27.77;;
43124;SDS011;49182;50.788;7.318;2023-02-23T06:54:03;44.45;;;26.48;;
43124;SDS011;49182;50.788;7.318;2023-02-23T06:56:30;49.28;;;27.52;;
43124;SDS011;49182;50.788;7.318;2023-02-23T06:58:56;51.40;;;29.55;;
43124;SDS011;49182;50.788;7.318;2023-02-23T07:01:24;52.20;;;30.27;;
43124;SDS011;49182;50.788;7.318;2023-02-23T07:03:52;48.50;;;27.85;;
43124;SDS011;49182;50.788;7.318;2023-02-23T07:06:19;47.40;;;27.80;;
43124;SDS011;49182;50.788;7.318;2023-02-23T07:08:46;46.65;;;26.77;;
43124;SDS011;49182;50.788;7.318;2023-02-23T07:11:13;48.90;;;27.75;;
43124;SDS011;49182;50.788;7.318;2023-02-23T07:13:40;46.42;;;27.48;;
43124;SDS011;49182;50.788;7.318;2023-02-23T07:16:07;48.95;;;28.15;;
43124;SDS011;49182;50.788;7.318;2023-02-23T07:18:34;53.25;;;29.00;;
43124;SDS011;49182;50.788;7.318;2023-02-23T07:21:02;50.13;;;29.08;;
43124;SDS011;49182;50.788;7.318;2023-02-23T07:23:28;48.30;;;28.08;;
43124;SDS011;49182;50.788;7.318;2023-02-23T07:25:55;50.85;;;29.67;;
43124;SDS011;49182;50.788;7.318;2023-02-23T07:28:22;51.05;;;28.95;;
43124;SDS011;49182;50.788;7.318;2023-02-23T07:30:48;52.70;;;30.17;;
43124;SDS011;49182;50.788;7.318;2023-02-23T07:33:15;50.00;;;29.05;;
43124;SDS011;49182;50.788;7.318;2023-02-23T07:35:42;48.38;;;29.40;;
43124;SDS011;49182;50.788;7.318;2023-02-23T07:38:10;48.85;;;27.52;;
43124;SDS011;49182;50.788;7.318;2023-02-23T07:40:36;52.92;;;30.13;;
43124;SDS011;49182;50.788;7.318;2023-02-23T07:43:03;46.30;;;28.05;;
43124;SDS011;49182;50.788;7.318;2023-02-23T07:45:29;47.42;;;26.92;;
43124;SDS011;49182;50.788;7.318;2023-02-23T07:47:56;49.28;;;28.67;;
43124;SDS011;49182;50.788;7.318;2023-02-23T07:50:23;54.55;;;28.05;;
43124;SDS011;49182;50.788;7.318;2023-02-23T07:52:49;52.47;;;29.30;;
43124;SDS011;49182;50.788;7.318;2023-02-23T07:55:18;56.10;;;30.75;;
43124;SDS011;49182;50.788;7.318;2023-02-23T07:57:45;62.42;;;30.75;;
43124;SDS011;49182;50.788;7.318;2023-02-23T08:00:12;56.03;;;29.27;;
43124;SDS011;49182;50.788;7.318;2023-02-23T08:02:39;58.38;;;31.20;;
43124;SDS011;49182;50.788;7.318;2023-02-23T08:05:06;55.67;;;30.50;;
43124;SDS011;49182;50.788;7.318;2023-02-23T08:07:33;53.35;;;29.48;;
43124;SDS011;49182;50.788;7.318;2023-02-23T08:09:59;48.88;;;27.52;;
43124;SDS011;49182;50.788;7.318;2023-02-23T08:12:28;49.17;;;28.55;;
43124;SDS011;49182;50.788;7.318;2023-02-23T08:14:54;53.83;;;28.80;;
43124;SDS011;49182;50.788;7.318;2023-02-23T08:17:21;53.38;;;28.95;;
43124;SDS011;49182;50.788;7.318;2023-02-23T08:19:47;50.35;;;27.80;;
43124;SDS011;49182;50.788;7.318;2023-02-23T08:22:14;50.22;;;28.65;;
43124;SDS011;49182;50.788;7.318;2023-02-23T08:24:40;52.13;;;29.50;;
43124;SDS011;49182;50.788;7.318;2023-02-23T08:27:07;46.50;;;26.52;;
43124;SDS011;49182;50.788;7.318;2023-02-23T08:29:35;44.28;;;25.70;;
43124;SDS011;49182;50.788;7.318;2023-02-23T08:32:02;42.10;;;25.42;;
43124;SDS011;49182;50.788;7.318;2023-02-23T08:34:29;48.50;;;26.65;;
43124;SDS011;49182;50.788;7.318;2023-02-23T08:36:56;50.67;;;27.80;;
43124;SDS011;49182;50.788;7.318;2023-02-23T08:39:23;43.53;;;25.65;;
43124;SDS011;49182;50.788;7.318;2023-02-23T08:41:49;39.72;;;24.20;;
43124;SDS011;49182;50.788;7.318;2023-02-23T08:44:16;43.97;;;24.08;;
43124;SDS011;49182;50.788;7.318;2023-02-23T08:46:44;42.35;;;24.00;;
43124;SDS011;49182;50.788;7.318;2023-02-23T08:49:10;46.08;;;25.98;;
43124;SDS011;49182;50.788;7.318;2023-02-23T08:51:37;43.78;;;25.15;;
43124;SDS011;49182;50.788;7.318;2023-02-23T08:54:04;45.97;;;26.35;;
43124;SDS011;49182;50.788;7.318;2023-02-23T08:56:30;54.22;;;29.20;;
43124;SDS011;49182;50.788;7.318;2023-02-23T08:58:57;47.33;;;26.88;;
43124;SDS011;49182;50.788;7.318;2023-02-23T09:01:24;47.10;;;28.35;;
43124;SDS011;49182;50.788;7.318;2023-02-23T09:03:52;42.83;;;25.42;;
43124;SDS011;49182;50.788;7.318;2023-02-23T09:06:19;44.88;;;24.88;;
43124;SDS011;49182;50.788;7.318;2023-02-23T09:08:48;42.53;;;25.30;;
43124;SDS011;49182;50.788;7.318;2023-02-23T09:11:14;41.83;;;24.38;;
43124;SDS011;49182;50.788;7.318;2023-02-23T09:13:41;49.13;;;27.60;;
43124;SDS011;49182;50.788;7.318;2023-02-23T09:16:08;43.40;;;25.13;;
43124;SDS011;49182;50.788;7.318;2023-02-23T09:18:35;41.80;;;24.30;;
43124;SDS011;49182;50.788;7.318;2023-02-23T09:21:04;51.20;;;26.38;;
43124;SDS011;49182;50.788;7.318;2023-02-23T09:23:32;42.03;;;23.75;;
43124;SDS011;49182;50.788;7.318;2023-02-23T09:26:01;43.65;;;25.98;;
43124;SDS011;49182;50.788;7.318;2023-02-23T09:28:28;42.28;;;24.33;;
43124;SDS011;49182;50.788;7.318;2023-02-23T09:30:56;41.42;;;24.48;;
43124;SDS011;49182;50.788;7.318;2023-02-23T09:33:22;43.97;;;25.20;;
43124;SDS011;49182;50.788;7.318;2023-02-23T09:35:49;50.05;;;26.95;;
43124;SDS011;49182;50.788;7.318;2023-02-23T09:38:17;45.55;;;26.15;;
43124;SDS011;49182;50.788;7.318;2023-02-23T09:40:44;42.22;;;24.80;;
43124;SDS011;49182;50.788;7.318;2023-02-23T09:43:13;47.38;;;26.50;;
43124;SDS011;49182;50.788;7.318;2023-02-23T09:45:46;43.83;;;26.48;;
43124;SDS011;49182;50.788;7.318;2023-02-23T09:48:15;43.70;;;24.92;;
43124;SDS011;49182;50.788;7.318;2023-02-23T09:50:45;41.83;;;23.95;;
43124;SDS011;49182;50.788;7.318;2023-02-23T09:53:20;40.97;;;24.07;;
43124;SDS011;49182;50.788;7.318;2023-02-23T09:55:53;39.97;;;23.48;;
43124;SDS011;49182;50.788;7.318;2023-02-23T09:58:22;44.05;;;24.98;;
43124;SDS011;49182;50.788;7.318;2023-02-23T10:00:53;42.15;;;24.98;;
43124;SDS011;49182;50.788;7.318;2023-02-23T10:03:35;46.35;;;25.60;;
43124;SDS011;49182;50.788;7.318;2023-02-23T10:06:05;37.20;;;22.50;;
43124;SDS011;49182;50.788;7.318;2023-02-23T10:08:41;37.97;;;22.27;;
43124;SDS011;49182;50.788;7.318;2023-02-23T10:11:17;44.45;;;24.27;;
43124;SDS011;49182;50.788;7.318;2023-02-23T10:13:55;40.35;;;23.55;;
43124;SDS011;49182;50.788;7.318;2023-02-23T10:16:32;46.20;;;25.13;;
43124;SDS011;49182;50.788;7.318;2023-02-23T10:19:08;42.90;;;25.52;;
43124;SDS011;49182;50.788;7.318;2023-02-23T10:21:42;40.72;;;22.73;;
43124;SDS011;49182;50.788;7.318;2023-02-23T10:24:19;39.22;;;23.42;;
43124;SDS011;49182;50.788;7.318;2023-02-23T10:26:51;46.05;;;26.13;;
43124;SDS011;49182;50.788;7.318;2023-02-23T10:29:21;42.00;;;23.35;;
43124;SDS011;49182;50.788;7.318;2023-02-23T10:31:53;40.65;;;22.65;;
43124;SDS011;49182;50.788;7.318;2023-02-23T10:34:22;44.33;;;25.00;;
43124;SDS011;49182;50.788;7.318;2023-02-23T10:36:54;40.42;;;23.40;;
43124;SDS011;49182;50.788;7.318;2023-02-23T10:39:25;43.70;;;23.65;;
43124;SDS011;49182;50.788;7.318;2023-02-23T10:41:52;43.80;;;25.13;;
43124;SDS011;49182;50.788;7.318;2023-02-23T10:44:20;43.10;;;23.42;;
43124;SDS011;49182;50.788;7.318;2023-02-23T10:46:50;44.00;;;24.23;;
43124;SDS011;49182;50.788;7.318;2023-02-23T10:49:21;39.65;;;22.63;;
43124;SDS011;49182;50.788;7.318;2023-02-23T10:54:36;43.45;;;22.10;;
43124;SDS011;49182;50.788;7.318;2023-02-23T10:57:08;40.53;;;22.27;;
43124;SDS011;49182;50.788;7.318;2023-02-23T10:59:37;38.10;;;21.70;;
43124;SDS011;49182;50.788;7.318;2023-02-23T11:02:14;42.47;;;23.45;;
43124;SDS011;49182;50.788;7.318;2023-02-23T11:04:50;37.65;;;22.27;;
43124;SDS011;49182;50.788;7.318;2023-02-23T11:07:20;38.40;;;21.35;;
43124;SDS011;49182;50.788;7.318;2023-02-23T11:09:50;40.28;;;21.67;;
43124;SDS011;49182;50.788;7.318;2023-02-23T11:12:17;38.55;;;22.23;;
43124;SDS011;49182;50.788;7.318;2023-02-23T11:14:46;43.65;;;23.70;;
43124;SDS011;49182;50.788;7.318;2023-02-23T11:17:22;40.45;;;20.80;;
43124;SDS011;49182;50.788;7.318;2023-02-23T11:19:56;37.42;;;22.30;;
43124;SDS011;49182;50.788;7.318;2023-02-23T11:22:24;37.50;;;22.15;;
43124;SDS011;49182;50.788;7.318;2023-02-23T11:25:00;40.20;;;22.27;;
43124;SDS011;49182;50.788;7.318;2023-02-23T11:27:37;36.38;;;21.27;;
43124;SDS011;49182;50.788;7.318;2023-02-23T11:30:04;38.55;;;21.50;;
43124;SDS011;49182;50.788;7.318;2023-02-23T11:32:32;41.58;;;22.15;;
43124;SDS011;49182;50.788;7.318;2023-02-23T11:35:10;41.00;;;22.42;;
43124;SDS011;49182;50.788;7.318;2023-02-23T11:37:39;42.22;;;21.35;;
43124;SDS011;49182;50.788;7.318;2023-02-23T11:40:18;36.28;;;20.15;;
43124;SDS011;49182;50.788;7.318;2023-02-23T11:42:50;39.47;;;21.23;;
43124;SDS011;49182;50.788;7.318;2023-02-23T11:45:19;42.10;;;22.63;;
43124;SDS011;49182;50.788;7.318;2023-02-23T11:47:48;42.35;;;22.23;;
43124;SDS011;49182;50.788;7.318;2023-02-23T11:50:19;37.88;;;21.67;;
43124;SDS011;49182;50.788;7.318;2023-02-23T11:52:50;36.58;;;21.02;;
43124;SDS011;49182;50.788;7.318;2023-02-23T11:55:23;36.20;;;20.65;;
43124;SDS011;49182;50.788;7.318;2023-02-23T11:57:50;41.08;;;21.58;;
43124;SDS011;49182;50.788;7.318;2023-02-23T12:00:21;36.58;;;20.55;;
43124;SDS011;49182;50.788;7.318;2023-02-23T12:02:51;38.83;;;20.85;;
43124;SDS011;49182;50.788;7.318;2023-02-23T12:05:21;30.67;;;19.02;;
43124;SDS011;49182;50.788;7.318;2023-02-23T12:07:51;36.63;;;20.42;;
43124;SDS011;49182;50.788;7.318;2023-02-23T12:10:25;35.72;;;19.83;;
43124;SDS011;49182;50.788;7.318;2023-02-23T12:12:58;41.00;;;21.67;;
43124;SDS011;49182;50.788;7.318;2023-02-23T12:15:33;35.88;;;20.85;;
43124;SDS011;49182;50.788;7.318;2023-02-23T12:18:07;47.72;;;26.63;;
43124;SDS011;49182;50.788;7.318;2023-02-23T12:20:42;37.40;;;20.38;;
43124;SDS011;49182;50.788;7.318;2023-02-23T12:23:14;32.97;;;20.30;;
43124;SDS011;49182;50.788;7.318;2023-02-23T12:25:46;35.45;;;19.42;;
43124;SDS011;49182;50.788;7.318;2023-02-23T12:28:21;29.52;;;16.80;;
43124;SDS011;49182;50.788;7.318;2023-02-23T12:30:54;31.38;;;16.55;;
43124;SDS011;49182;50.788;7.318;2023-02-23T12:33:25;24.35;;;14.65;;
43124;SDS011;49182;50.788;7.318;2023-02-23T12:35:56;26.45;;;14.45;;
43124;SDS011;49182;50.788;7.318;2023-02-23T12:38:30;26.42;;;14.95;;
43124;SDS011;49182;50.788;7.318;2023-02-23T12:41:09;24.77;;;13.90;;
43124;SDS011;49182;50.788;7.318;2023-02-23T12:43:38;25.52;;;15.25;;
43124;SDS011;49182;50.788;7.318;2023-02-23T12:46:10;27.55;;;16.63;;
43124;SDS011;49182;50.788;7.318;2023-02-23T12:48:43;25.38;;;14.70;;
43124;SDS011;49182;50.788;7.318;2023-02-23T12:51:20;25.00;;;14.82;;
43124;SDS011;49182;50.788;7.318;2023-02-23T12:53:52;22.75;;;13.73;;
43124;SDS011;49182;50.788;7.318;2023-02-23T12:56:27;23.88;;;13.73;;
43124;SDS011;49182;50.788;7.318;2023-02-23T12:59:01;26.02;;;15.93;;
43124;SDS011;49182;50.788;7.318;2023-02-23T13:01:41;24.90;;;15.77;;
43124;SDS011;49182;50.788;7.318;2023-02-23T13:04:17;22.92;;;13.50;;
43124;SDS011;49182;50.788;7.318;2023-02-23T13:07:00;28.23;;;15.48;;
43124;SDS011;49182;50.788;7.318;2023-02-23T13:09:42;31.85;;;16.65;;
43124;SDS011;49182;50.788;7.318;2023-02-23T13:12:27;22.95;;;14.70;;
43124;SDS011;49182;50.788;7.318;2023-02-23T13:15:07;23.70;;;13.45;;
43124;SDS011;49182;50.788;7.318;2023-02-23T13:17:45;23.70;;;13.70;;
43124;SDS011;49182;50.788;7.318;2023-02-23T13:20:19;21.88;;;13.52;;
43124;SDS011;49182;50.788;7.318;2023-02-23T13:22:52;23.08;;;13.45;;
43124;SDS011;49182;50.788;7.318;2023-02-23T13:25:28;23.17;;;13.15;;
43124;SDS011;49182;50.788;7.318;2023-02-23T13:28:01;23.95;;;13.55;;
43124;SDS011;49182;50.788;7.318;2023-02-23T13:30:29;21.80;;;13.10;;
43124;SDS011;49182;50.788;7.318;2023-02-23T13:32:57;23.60;;;13.30;;
43124;SDS011;49182;50.788;7.318;2023-02-23T13:35:24;30.50;;;13.45;;
43124;SDS011;49182;50.788;7.318;2023-02-23T13:37:53;22.25;;;12.98;;
43124;SDS011;49182;50.788;7.318;2023-02-23T13:40:25;18.65;;;12.35;;
43124;SDS011;49182;50.788;7.318;2023-02-23T13:43:02;23.70;;;13.25;;
43124;SDS011;49182;50.788;7.318;2023-02-23T13:45:44;21.08;;;12.30;;
43124;SDS011;49182;50.788;7.318;2023-02-23T13:48:18;22.38;;;12.65;;
43124;SDS011;49182;50.788;7.318;2023-02-23T13:51:13;23.63;;;13.60;;
43124;SDS011;49182;50.788;7.318;2023-02-23T13:53:46;23.17;;;13.48;;
43124;SDS011;49182;50.788;7.318;2023-02-23T13:56:25;23.10;;;13.35;;
43124;SDS011;49182;50.788;7.318;2023-02-23T13:58:57;25.33;;;14.13;;
43124;SDS011;49182;50.788;7.318;2023-02-23T14:03:55;29.33;;;15.02;;
43124;SDS011;49182;50.788;7.318;2023-02-23T14:06:24;38.88;;;18.45;;
43124;SDS011;49182;50.788;7.318;2023-02-23T14:08:56;40.15;;;18.63;;
43124;SDS011;49182;50.788;7.318;2023-02-23T14:11:33;37.72;;;17.88;;
43124;SDS011;49182;50.788;7.318;2023-02-23T14:14:05;39.55;;;19.33;;
43124;SDS011;49182;50.788;7.318;2023-02-23T14:16:32;37.22;;;18.58;;
43124;SDS011;49182;50.788;7.318;2023-02-23T14:19:06;42.78;;;18.98;;
43124;SDS011;49182;50.788;7.318;2023-02-23T14:21:59;40.88;;;19.08;;
43124;SDS011;49182;50.788;7.318;2023-02-23T14:24:30;42.92;;;19.55;;
43124;SDS011;49182;50.788;7.318;2023-02-23T14:32:53;40.67;;;18.92;;
43124;SDS011;49182;50.788;7.318;2023-02-23T14:35:37;39.97;;;18.65;;
43124;SDS011;49182;50.788;7.318;2023-02-23T14:38:09;43.25;;;17.73;;
43124;SDS011;49182;50.788;7.318;2023-02-23T14:40:38;35.17;;;16.38;;
43124;SDS011;49182;50.788;7.318;2023-02-23T14:46:11;31.35;;;15.45;;
43124;SDS011;49182;50.788;7.318;2023-02-23T14:48:44;32.88;;;14.90;;
43124;SDS011;49182;50.788;7.318;2023-02-23T14:51:27;32.10;;;14.73;;
43124;SDS011;49182;50.788;7.318;2023-02-23T14:54:08;35.53;;;14.57;;
43124;SDS011;49182;50.788;7.318;2023-02-23T14:56:44;35.70;;;15.40;;
43124;SDS011;49182;50.788;7.318;2023-02-23T14:59:13;30.30;;;14.05;;
43124;SDS011;49182;50.788;7.318;2023-02-23T15:01:45;34.90;;;15.27;;
43124;SDS011;49182;50.788;7.318;2023-02-23T15:04:13;28.60;;;13.73;;
43124;SDS011;49182;50.788;7.318;2023-02-23T15:06:43;30.67;;;14.75;;
43124;SDS011;49182;50.788;7.318;2023-02-23T15:09:12;33.40;;;15.68;;
43124;SDS011;49182;50.788;7.318;2023-02-23T15:11:42;30.63;;;14.75;;
43124;SDS011;49182;50.788;7.318;2023-02-23T15:14:12;31.27;;;15.23;;
43124;SDS011;49182;50.788;7.318;2023-02-23T15:16:54;32.08;;;15.20;;